createdAt,value
2023-04-26T00:00:55.328Z,100.00
2023-04-26T00:03:23.453Z,100.00
2023-04-26T00:05:50.689Z,100.00
2023-04-26T00:08:17.735Z,100.00
2023-04-26T00:10:44.535Z,100.00
2023-04-26T00:13:11.329Z,100.00
2023-04-26T00:15:38.392Z,100.00
2023-04-26T00:18:05.355Z,100.00
2023-04-26T00:20:32.145Z,100.00
2023-04-26T00:22:59.100Z,100.00
2023-04-26T00:25:25.889Z,100.00
2023-04-26T00:27:52.713Z,100.00
2023-04-26T00:30:19.662Z,100.00
2023-04-26T00:32:47.136Z,100.00
2023-04-26T00:35:14.253Z,100.00
2023-04-26T00:37:41.531Z,100.00
2023-04-26T00:40:09.122Z,100.00
2023-04-26T00:42:36.186Z,100.00
2023-04-26T00:45:03.969Z,100.00
2023-04-26T00:47:31.081Z,100.00
2023-04-26T00:49:58.308Z,100.00
2023-04-26T00:52:26.490Z,100.00
2023-04-26T00:54:54.610Z,100.00
2023-04-26T00:57:22.236Z,100.00
2023-04-26T00:59:49.429Z,100.00
2023-04-26T01:02:17.568Z,100.00
2023-04-26T01:04:45.659Z,100.00
2023-04-26T01:07:12.494Z,100.00
2023-04-26T01:09:40.645Z,100.00
2023-04-26T01:12:08.786Z,100.00
2023-04-26T01:14:36.814Z,100.00
2023-04-26T01:17:04.050Z,100.00
2023-04-26T01:19:30.881Z,100.00
2023-04-26T01:21:57.681Z,100.00
2023-04-26T01:24:24.576Z,100.00
2023-04-26T01:26:51.427Z,100.00
2023-04-26T01:29:20.600Z,100.00
2023-04-26T01:31:48.822Z,100.00
2023-04-26T01:34:16.404Z,100.00
2023-04-26T01:36:43.348Z,100.00
2023-04-26T01:39:10.350Z,100.00
2023-04-26T01:41:37.147Z,100.00
2023-04-26T01:44:04.247Z,100.00
2023-04-26T01:46:31.106Z,100.00
2023-04-26T01:48:58.047Z,100.00
2023-04-26T01:51:25.011Z,100.00
2023-04-26T01:53:51.876Z,100.00
2023-04-26T01:56:20.452Z,100.00
2023-04-26T01:58:47.456Z,100.00
2023-04-26T02:01:14.261Z,100.00
2023-04-26T02:03:41.297Z,100.00
2023-04-26T02:06:08.187Z,100.00
2023-04-26T02:08:34.980Z,100.00
2023-04-26T02:11:01.812Z,100.00
2023-04-26T02:13:28.705Z,100.00
2023-04-26T02:15:55.810Z,100.00
2023-04-26T02:18:22.662Z,100.00
2023-04-26T02:20:49.520Z,100.00
2023-04-26T02:23:16.699Z,100.00
2023-04-26T02:25:47.516Z,100.00
2023-04-26T02:28:14.731Z,100.00
2023-04-26T02:30:42.034Z,100.00
2023-04-26T02:33:09.633Z,100.00
2023-04-26T02:35:39.299Z,100.00
2023-04-26T02:38:07.262Z,100.00
2023-04-26T02:40:34.252Z,100.00
2023-04-26T02:43:01.592Z,100.00
2023-04-26T02:45:28.418Z,100.00
2023-04-26T02:47:55.416Z,100.00
2023-04-26T02:50:22.361Z,100.00
2023-04-26T02:52:49.164Z,100.00
2023-04-26T02:55:16.183Z,100.00
2023-04-26T02:57:43.099Z,100.00
2023-04-26T03:00:11.482Z,100.00
2023-04-26T03:02:38.511Z,100.00
2023-04-26T03:05:05.777Z,100.00
2023-04-26T03:07:33.046Z,100.00
2023-04-26T03:10:00.369Z,100.00
2023-04-26T03:12:27.145Z,100.00
2023-04-26T03:14:53.906Z,100.00
2023-04-26T03:17:21.092Z,100.00
2023-04-26T03:19:47.896Z,100.00
2023-04-26T03:22:16.295Z,100.00
2023-04-26T03:24:44.552Z,100.00
2023-04-26T03:27:11.369Z,100.00
2023-04-26T03:29:38.222Z,100.00
2023-04-26T03:32:06.147Z,100.00
2023-04-26T03:34:33.213Z,100.00
2023-04-26T03:36:59.996Z,100.00
2023-04-26T03:39:26.798Z,100.00
2023-04-26T03:41:53.562Z,100.00
2023-04-26T03:44:20.353Z,100.00
2023-04-26T03:46:47.158Z,100.00
2023-04-26T03:49:13.960Z,100.00
2023-04-26T03:51:40.754Z,100.00
2023-04-26T03:54:07.548Z,100.00
2023-04-26T03:56:34.399Z,100.00
2023-04-26T03:59:01.284Z,100.00
2023-04-26T04:01:28.628Z,100.00
2023-04-26T04:03:55.940Z,100.00
2023-04-26T04:06:22.949Z,100.00
2023-04-26T04:08:50.030Z,100.00
2023-04-26T04:11:17.016Z,100.00
2023-04-26T04:13:44.006Z,100.00
2023-04-26T04:16:10.877Z,100.00
2023-04-26T04:18:37.796Z,100.00
2023-04-26T04:21:04.579Z,100.00
2023-04-26T04:23:31.801Z,100.00
2023-04-26T04:25:58.603Z,100.00
2023-04-26T04:28:25.443Z,100.00
2023-04-26T04:30:52.356Z,100.00
2023-04-26T04:33:19.209Z,100.00
2023-04-26T04:35:46.018Z,100.00
2023-04-26T04:38:13.163Z,100.00
2023-04-26T04:40:40.114Z,100.00
2023-04-26T04:43:06.952Z,100.00
2023-04-26T04:45:33.816Z,100.00
2023-04-26T04:48:00.621Z,100.00
2023-04-26T04:50:28.159Z,100.00
2023-04-26T04:52:54.973Z,100.00
2023-04-26T04:55:21.884Z,100.00
2023-04-26T04:57:48.700Z,100.00
2023-04-26T05:00:16.389Z,100.00
2023-04-26T05:02:49.795Z,100.00
2023-04-26T05:05:16.838Z,100.00
2023-04-26T05:07:43.683Z,100.00
2023-04-26T05:10:11.471Z,100.00
2023-04-26T05:12:38.298Z,100.00
2023-04-26T05:15:05.956Z,100.00
2023-04-26T05:17:33.775Z,100.00
2023-04-26T05:20:03.879Z,100.00
2023-04-26T05:22:30.922Z,100.00
2023-04-26T05:24:57.722Z,100.00
2023-04-26T05:27:24.585Z,100.00
2023-04-26T05:29:51.393Z,100.00
2023-04-26T05:32:18.254Z,100.00
2023-04-26T05:34:45.098Z,100.00
2023-04-26T05:37:11.907Z,100.00
2023-04-26T05:39:38.742Z,100.00
2023-04-26T05:42:06.273Z,100.00
2023-04-26T05:44:33.127Z,100.00
2023-04-26T05:46:59.942Z,100.00
2023-04-26T05:49:26.800Z,100.00
2023-04-26T05:51:53.617Z,100.00
2023-04-26T05:54:21.136Z,100.00
2023-04-26T05:56:48.254Z,100.00
2023-04-26T05:59:15.055Z,100.00
2023-04-26T06:01:41.854Z,100.00
2023-04-26T06:04:09.053Z,100.00
2023-04-26T06:06:36.998Z,100.00
2023-04-26T06:09:04.546Z,100.00
2023-04-26T06:11:31.401Z,100.00
2023-04-26T06:13:58.202Z,100.00
2023-04-26T06:16:25.028Z,100.00
2023-04-26T06:18:51.820Z,100.00
2023-04-26T06:21:18.987Z,100.00
2023-04-26T06:23:46.650Z,100.00
2023-04-26T06:26:13.454Z,100.00
2023-04-26T06:28:42.193Z,100.00
2023-04-26T06:31:09.215Z,100.00
2023-04-26T06:33:36.265Z,100.00
2023-04-26T06:36:03.194Z,100.00
2023-04-26T06:38:29.967Z,100.00
2023-04-26T06:40:57.199Z,100.00
2023-04-26T06:43:23.985Z,100.00
2023-04-26T06:45:50.821Z,100.00
2023-04-26T06:48:17.636Z,100.00
2023-04-26T06:50:44.568Z,100.00
2023-04-26T06:53:11.384Z,100.00
2023-04-26T06:55:38.278Z,100.00
2023-04-26T06:58:05.302Z,100.00
2023-04-26T07:00:32.099Z,100.00
2023-04-26T07:02:59.204Z,100.00
2023-04-26T07:05:26.301Z,100.00
2023-04-26T07:07:53.174Z,100.00
2023-04-26T07:10:21.136Z,100.00
2023-04-26T07:12:47.993Z,100.00
2023-04-26T07:15:14.835Z,100.00
2023-04-26T07:17:41.810Z,100.00
2023-04-26T07:20:10.248Z,100.00
2023-04-26T07:22:37.161Z,100.00
2023-04-26T07:25:05.038Z,100.00
2023-04-26T07:27:31.980Z,100.00
2023-04-26T07:29:59.346Z,100.00
2023-04-26T07:32:26.338Z,100.00
2023-04-26T07:34:53.500Z,100.00
2023-04-26T07:37:20.766Z,100.00
2023-04-26T07:39:47.630Z,100.00
2023-04-26T07:42:15.098Z,100.00
2023-04-26T07:44:41.862Z,100.00
2023-04-26T07:47:14.822Z,100.00
2023-04-26T07:49:42.038Z,100.00
2023-04-26T07:52:09.563Z,100.00
2023-04-26T07:54:36.856Z,100.00
2023-04-26T07:57:03.739Z,100.00
2023-04-26T07:59:30.526Z,100.00
2023-04-26T08:01:57.528Z,100.00
2023-04-26T08:04:33.522Z,100.00
2023-04-26T08:07:03.581Z,100.00
2023-04-26T08:09:30.684Z,100.00
2023-04-26T08:11:58.082Z,99.86
2023-04-26T08:14:25.177Z,100.00
2023-04-26T08:16:52.103Z,100.00
2023-04-26T08:19:18.952Z,100.00
2023-04-26T08:21:46.369Z,100.00
2023-04-26T08:24:13.242Z,100.00
2023-04-26T08:26:40.027Z,100.00
2023-04-26T08:29:07.396Z,99.51
2023-04-26T08:31:34.237Z,96.87
2023-04-26T08:34:01.165Z,96.20
2023-04-26T08:36:27.998Z,99.86
2023-04-26T08:38:56.490Z,99.38
2023-04-26T08:41:25.254Z,94.94
2023-04-26T08:43:52.825Z,87.75
2023-04-26T08:46:20.880Z,82.92
2023-04-26T08:48:57.122Z,82.83
2023-04-26T08:51:24.273Z,89.54
2023-04-26T08:53:53.420Z,81.07
2023-04-26T08:56:24.239Z,80.68
2023-04-26T08:58:51.961Z,77.04
2023-04-26T09:01:20.051Z,78.55
2023-04-26T09:03:47.656Z,77.84
2023-04-26T09:06:15.551Z,78.73
2023-04-26T09:08:44.074Z,79.57
2023-04-26T09:11:10.851Z,77.72
2023-04-26T09:13:37.597Z,74.15
2023-04-26T09:16:05.251Z,78.43
2023-04-26T09:18:33.863Z,79.82
2023-04-26T09:21:07.548Z,78.78
2023-04-26T09:23:35.195Z,76.30
2023-04-26T09:26:17.809Z,81.12
2023-04-26T09:28:46.396Z,82.61
2023-04-26T09:31:40.638Z,82.63
2023-04-26T09:34:09.977Z,83.49
2023-04-26T09:36:58.821Z,84.71
2023-04-26T09:39:40.331Z,83.58
2023-04-26T09:42:08.925Z,73.10
2023-04-26T09:44:36.209Z,79.59
2023-04-26T09:47:04.413Z,80.56
2023-04-26T09:49:58.849Z,72.06
2023-04-26T09:52:25.900Z,77.52
2023-04-26T09:54:54.736Z,79.88
2023-04-26T09:57:23.451Z,80.36
2023-04-26T09:59:55.228Z,80.56
2023-04-26T10:02:26.731Z,76.28
2023-04-26T10:04:56.049Z,64.15
2023-04-26T10:07:25.234Z,74.25
2023-04-26T10:09:52.064Z,69.33
2023-04-26T10:12:20.244Z,67.10
2023-04-26T10:14:48.306Z,73.18
2023-04-26T10:17:15.175Z,70.80
2023-04-26T10:19:46.694Z,72.58
2023-04-26T10:22:26.062Z,73.57
2023-04-26T10:24:55.059Z,75.34
2023-04-26T10:27:43.747Z,72.54
2023-04-26T10:30:13.848Z,75.44
2023-04-26T10:32:55.495Z,75.39
2023-04-26T10:35:32.552Z,75.45
2023-04-26T10:38:02.092Z,76.01
2023-04-26T10:40:39.465Z,76.60
2023-04-26T10:43:09.737Z,74.78
2023-04-26T10:45:37.867Z,73.77
2023-04-26T10:48:20.251Z,72.76
2023-04-26T10:51:02.200Z,71.94
2023-04-26T10:53:29.920Z,70.79
2023-04-26T10:55:56.821Z,69.37
2023-04-26T10:58:31.461Z,68.23
2023-04-26T11:01:17.680Z,67.61
2023-04-26T11:03:57.215Z,60.05
2023-04-26T11:06:28.810Z,65.17
2023-04-26T11:08:56.070Z,64.94
2023-04-26T11:11:27.254Z,66.57
2023-04-26T11:13:54.104Z,67.60
2023-04-26T11:16:20.990Z,66.57
2023-04-26T11:18:48.213Z,66.04
2023-04-26T11:21:19.512Z,67.14
2023-04-26T11:23:54.649Z,66.62
2023-04-26T11:26:21.963Z,67.01
2023-04-26T11:28:49.513Z,66.13
2023-04-26T11:31:19.440Z,62.00
2023-04-26T11:33:49.079Z,59.30
2023-04-26T11:36:17.381Z,61.66
2023-04-26T11:38:44.242Z,61.33
2023-04-26T11:41:11.377Z,60.65
2023-04-26T11:43:39.793Z,59.64
2023-04-26T11:46:08.240Z,61.48
2023-04-26T11:48:37.095Z,61.35
2023-04-26T11:51:07.044Z,60.28
2023-04-26T11:53:42.502Z,58.07
2023-04-26T11:56:17.206Z,55.72
2023-04-26T11:58:52.931Z,46.32
2023-04-26T12:01:25.437Z,49.30
2023-04-26T12:03:54.680Z,49.78
2023-04-26T12:06:42.563Z,50.82
2023-04-26T12:09:11.183Z,52.93
2023-04-26T12:11:38.915Z,53.78
2023-04-26T12:14:06.064Z,51.87
2023-04-26T12:16:36.056Z,53.14
2023-04-26T12:19:07.145Z,55.42
2023-04-26T12:21:49.171Z,55.93
2023-04-26T12:24:34.220Z,56.27
2023-04-26T12:27:02.877Z,58.35
2023-04-26T12:29:31.817Z,58.59
2023-04-26T12:31:59.622Z,58.35
2023-04-26T12:34:26.473Z,58.43
2023-04-26T12:36:53.335Z,59.74
2023-04-26T12:39:20.106Z,58.28
2023-04-26T12:41:46.973Z,58.60
2023-04-26T12:44:14.443Z,59.64
2023-04-26T12:46:41.545Z,60.39
2023-04-26T12:49:08.634Z,60.98
2023-04-26T12:51:35.579Z,60.36
2023-04-26T12:54:02.722Z,59.57
2023-04-26T12:56:29.874Z,59.58
2023-04-26T12:58:56.793Z,59.23
2023-04-26T13:01:23.653Z,55.72
2023-04-26T13:03:50.921Z,59.16
2023-04-26T13:06:18.127Z,58.84
2023-04-26T13:08:44.921Z,55.86
2023-04-26T13:11:11.716Z,55.94
2023-04-26T13:13:43.649Z,52.06
2023-04-26T13:16:12.567Z,55.40
2023-04-26T13:18:39.844Z,56.53
2023-04-26T13:21:06.768Z,52.01
2023-04-26T13:23:33.598Z,54.22
2023-04-26T13:26:00.383Z,55.49
2023-04-26T13:28:27.231Z,51.33
2023-04-26T13:30:54.138Z,50.95
2023-04-26T13:33:21.409Z,49.99
2023-04-26T13:35:48.408Z,52.30
2023-04-26T13:38:16.506Z,49.31
2023-04-26T13:40:44.029Z,47.08
2023-04-26T13:43:10.831Z,49.99
2023-04-26T13:45:37.654Z,51.43
2023-04-26T13:48:04.684Z,48.87
2023-04-26T13:50:31.530Z,47.01
2023-04-26T13:52:58.345Z,48.63
2023-04-26T13:55:25.709Z,45.35
2023-04-26T13:57:52.592Z,45.14
2023-04-26T14:00:19.915Z,47.20
2023-04-26T14:02:46.889Z,49.10
2023-04-26T14:05:13.965Z,45.56
2023-04-26T14:07:44.629Z,49.42
2023-04-26T14:10:12.647Z,51.40
2023-04-26T14:12:39.826Z,50.37
2023-04-26T14:15:07.747Z,48.84
2023-04-26T14:17:34.594Z,46.15
2023-04-26T14:20:01.477Z,47.70
2023-04-26T14:22:28.285Z,50.24
2023-04-26T14:24:55.200Z,51.69
2023-04-26T14:27:22.070Z,52.07
2023-04-26T14:29:48.859Z,51.98
2023-04-26T14:32:15.707Z,52.76
2023-04-26T14:34:42.877Z,52.84
2023-04-26T14:37:10.350Z,53.94
2023-04-26T14:39:37.189Z,50.71
2023-04-26T14:42:04.346Z,51.87
2023-04-26T14:44:31.186Z,52.58
2023-04-26T14:46:57.988Z,52.38
2023-04-26T14:49:24.802Z,51.86
2023-04-26T14:51:53.616Z,52.22
2023-04-26T14:54:21.042Z,54.01
2023-04-26T14:56:48.581Z,51.75
2023-04-26T14:59:15.577Z,53.59
2023-04-26T15:01:42.495Z,53.62
2023-04-26T15:04:09.446Z,54.17
2023-04-26T15:06:36.496Z,53.70
2023-04-26T15:09:04.517Z,52.15
2023-04-26T15:11:31.753Z,54.59
2023-04-26T15:13:58.518Z,54.51
2023-04-26T15:16:25.343Z,53.36
2023-04-26T15:18:52.264Z,53.97
2023-04-26T15:21:19.649Z,54.40
2023-04-26T15:23:46.587Z,53.12
2023-04-26T15:26:14.079Z,53.60
2023-04-26T15:28:41.151Z,53.59
2023-04-26T15:31:10.109Z,54.94
2023-04-26T15:33:37.584Z,55.05
2023-04-26T15:36:05.162Z,54.13
2023-04-26T15:38:34.803Z,53.49
2023-04-26T15:41:01.731Z,52.85
2023-04-26T15:43:28.633Z,55.30
2023-04-26T15:45:55.622Z,53.15
2023-04-26T15:48:22.460Z,53.14
2023-04-26T15:50:50.578Z,52.77
2023-04-26T15:53:17.717Z,52.82
2023-04-26T15:55:44.659Z,52.44
2023-04-26T15:58:11.772Z,52.15
2023-04-26T16:00:38.724Z,52.37
2023-04-26T16:03:05.763Z,52.82
2023-04-26T16:05:32.669Z,51.93
2023-04-26T16:07:59.842Z,50.79
2023-04-26T16:10:26.906Z,50.83
2023-04-26T16:12:53.691Z,51.70
2023-04-26T16:15:20.586Z,52.53
2023-04-26T16:17:47.529Z,51.40
2023-04-26T16:20:15.209Z,51.03
2023-04-26T16:22:45.047Z,50.28
2023-04-26T16:25:12.088Z,50.79
2023-04-26T16:27:38.872Z,51.50
2023-04-26T16:30:06.427Z,51.62
2023-04-26T16:32:34.027Z,52.24
2023-04-26T16:35:01.008Z,52.47
2023-04-26T16:37:27.816Z,52.92
2023-04-26T16:39:57.933Z,51.69
2023-04-26T16:42:24.770Z,51.63
2023-04-26T16:44:51.570Z,52.09
2023-04-26T16:47:18.335Z,52.08
2023-04-26T16:49:45.298Z,52.01
2023-04-26T16:52:12.285Z,51.88
2023-04-26T16:54:39.081Z,52.18
2023-04-26T16:57:05.947Z,51.51
2023-04-26T16:59:32.752Z,51.50
2023-04-26T17:01:59.608Z,51.97
2023-04-26T17:04:27.223Z,51.59
2023-04-26T17:06:54.695Z,51.40
2023-04-26T17:09:21.519Z,51.89
2023-04-26T17:11:49.842Z,53.05
2023-04-26T17:14:16.713Z,54.09
2023-04-26T17:16:43.651Z,50.98
2023-04-26T17:19:10.765Z,50.27
2023-04-26T17:21:37.538Z,50.61
2023-04-26T17:24:05.527Z,51.38
2023-04-26T17:26:32.307Z,51.68
2023-04-26T17:28:59.364Z,49.57
2023-04-26T17:31:26.512Z,50.00
2023-04-26T17:33:53.300Z,50.74
2023-04-26T17:36:20.720Z,51.75
2023-04-26T17:38:48.452Z,51.00
2023-04-26T17:41:18.876Z,51.97
2023-04-26T17:43:46.031Z,52.40
2023-04-26T17:46:12.986Z,50.15
2023-04-26T17:48:39.809Z,51.11
2023-04-26T17:51:06.850Z,51.19
2023-04-26T17:53:33.708Z,51.40
2023-04-26T17:56:00.508Z,51.35
2023-04-26T17:58:27.954Z,53.25
2023-04-26T18:00:54.811Z,52.95
2023-04-26T18:03:21.939Z,52.46
2023-04-26T18:05:49.123Z,54.49
2023-04-26T18:08:15.916Z,55.51
2023-04-26T18:10:42.771Z,55.02
2023-04-26T18:13:13.039Z,54.78
2023-04-26T18:15:40.119Z,54.77
2023-04-26T18:18:08.088Z,54.26
2023-04-26T18:20:38.076Z,56.08
2023-04-26T18:23:04.907Z,56.18
2023-04-26T18:25:31.760Z,55.54
2023-04-26T18:27:58.598Z,56.07
2023-04-26T18:30:25.429Z,55.85
2023-04-26T18:32:53.233Z,56.28
2023-04-26T18:35:20.413Z,57.33
2023-04-26T18:37:47.353Z,57.66
2023-04-26T18:40:14.383Z,55.86
2023-04-26T18:42:42.049Z,55.87
2023-04-26T18:45:09.412Z,56.13
2023-04-26T18:47:36.376Z,57.31
2023-04-26T18:50:03.485Z,57.05
2023-04-26T18:52:30.335Z,57.37
2023-04-26T18:54:57.320Z,57.55
2023-04-26T18:57:26.676Z,57.08
2023-04-26T18:59:53.530Z,56.55
2023-04-26T19:02:20.454Z,56.29
2023-04-26T19:04:50.322Z,56.36
2023-04-26T19:07:17.516Z,55.86
2023-04-26T19:09:53.731Z,56.56
2023-04-26T19:12:21.742Z,55.50
2023-04-26T19:14:48.623Z,55.83
2023-04-26T19:17:15.435Z,56.00
2023-04-26T19:19:42.264Z,56.49
2023-04-26T19:22:09.116Z,55.99
2023-04-26T19:24:36.016Z,55.48
2023-04-26T19:27:03.511Z,56.67
2023-04-26T19:29:30.492Z,58.09
2023-04-26T19:31:59.289Z,59.34
2023-04-26T19:34:26.685Z,59.72
2023-04-26T19:36:53.605Z,60.62
2023-04-26T19:39:22.668Z,61.38
2023-04-26T19:41:51.283Z,60.64
2023-04-26T19:44:18.357Z,58.67
2023-04-26T19:46:45.280Z,57.37
2023-04-26T19:49:12.296Z,57.46
2023-04-26T19:51:39.115Z,57.28
2023-04-26T19:54:06.146Z,56.81
2023-04-26T19:56:33.027Z,57.60
2023-04-26T19:58:59.871Z,57.60
2023-04-26T20:01:27.548Z,56.92
2023-04-26T20:03:54.580Z,57.90
2023-04-26T20:06:21.445Z,58.59
2023-04-26T20:08:48.231Z,59.18
2023-04-26T20:11:16.644Z,58.96
2023-04-26T20:13:44.303Z,59.67
2023-04-26T20:16:12.096Z,59.56
2023-04-26T20:18:38.874Z,59.78
2023-04-26T20:21:06.008Z,60.54
2023-04-26T20:23:32.934Z,61.64
2023-04-26T20:25:59.819Z,63.04
2023-04-26T20:28:26.719Z,62.80
2023-04-26T20:30:53.544Z,62.52
2023-04-26T20:33:21.196Z,62.68
2023-04-26T20:35:48.071Z,62.66
2023-04-26T20:38:14.896Z,63.29
2023-04-26T20:40:41.726Z,62.73
2023-04-26T20:43:08.572Z,63.65
2023-04-26T20:45:35.545Z,63.49
2023-04-26T20:48:02.441Z,64.09
2023-04-26T20:50:29.241Z,64.65
2023-04-26T20:52:56.211Z,65.02
2023-04-26T20:55:23.081Z,65.25
2023-04-26T20:57:49.873Z,65.44
2023-04-26T21:00:17.198Z,66.08
2023-04-26T21:02:44.108Z,66.38
2023-04-26T21:05:10.963Z,66.31
2023-04-26T21:07:37.726Z,66.46
2023-04-26T21:10:05.110Z,66.86
2023-04-26T21:12:31.892Z,66.67
2023-04-26T21:14:58.720Z,66.40
2023-04-26T21:17:25.530Z,66.47
2023-04-26T21:19:52.320Z,66.72
2023-04-26T21:22:19.100Z,67.23
2023-04-26T21:24:45.988Z,67.71
2023-04-26T21:27:12.807Z,67.82
2023-04-26T21:29:39.573Z,68.08
2023-04-26T21:32:06.484Z,68.98
2023-04-26T21:34:33.238Z,70.04
2023-04-26T21:37:00.050Z,70.07
2023-04-26T21:39:26.877Z,70.44
2023-04-26T21:41:53.649Z,71.06
2023-04-26T21:44:20.522Z,70.97
2023-04-26T21:46:47.345Z,70.11
2023-04-26T21:49:14.184Z,70.43
2023-04-26T21:51:40.965Z,70.15
2023-04-26T21:54:07.881Z,69.96
2023-04-26T21:56:34.693Z,70.56
2023-04-26T21:59:02.503Z,70.41
2023-04-26T22:01:29.419Z,70.73
2023-04-26T22:03:56.492Z,72.47
2023-04-26T22:06:23.341Z,73.20
2023-04-26T22:08:50.112Z,73.64
2023-04-26T22:11:17.045Z,73.87
2023-04-26T22:13:43.866Z,73.47
2023-04-26T22:16:10.709Z,74.07
2023-04-26T22:18:37.504Z,73.15
2023-04-26T22:21:04.308Z,73.21
2023-04-26T22:23:31.393Z,73.16
2023-04-26T22:26:00.590Z,74.02
2023-04-26T22:28:27.411Z,75.12
2023-04-26T22:30:54.288Z,76.14
2023-04-26T22:33:21.420Z,77.08
2023-04-26T22:35:48.183Z,75.82
2023-04-26T22:38:15.003Z,76.43
2023-04-26T22:40:42.386Z,75.34
2023-04-26T22:43:09.222Z,75.89
2023-04-26T22:45:36.434Z,76.75
2023-04-26T22:48:03.373Z,77.50
2023-04-26T22:50:30.461Z,77.08
2023-04-26T22:52:57.220Z,77.40
2023-04-26T22:55:24.071Z,78.19
2023-04-26T22:57:50.934Z,78.01
2023-04-26T23:00:17.900Z,78.12
2023-04-26T23:02:44.768Z,77.59
2023-04-26T23:05:11.860Z,78.73
2023-04-26T23:07:39.762Z,78.02
2023-04-26T23:10:07.385Z,77.83
2023-04-26T23:12:34.249Z,78.22
2023-04-26T23:15:01.802Z,77.51
2023-04-26T23:17:28.765Z,77.96
2023-04-26T23:19:56.363Z,78.99
2023-04-26T23:22:23.153Z,80.05
2023-04-26T23:24:49.944Z,80.28
2023-04-26T23:27:16.800Z,79.84
2023-04-26T23:29:43.571Z,80.18
2023-04-26T23:32:10.443Z,80.13
2023-04-26T23:34:37.171Z,81.05
2023-04-26T23:37:07.217Z,81.14
2023-04-26T23:39:35.562Z,81.57
2023-04-26T23:42:02.580Z,81.13
2023-04-26T23:44:29.416Z,82.43
2023-04-26T23:46:56.330Z,83.29
2023-04-26T23:49:23.205Z,83.84
2023-04-26T23:51:50.018Z,83.29
2023-04-26T23:54:16.789Z,84.95
2023-04-26T23:56:43.624Z,85.19
2023-04-26T23:59:10.441Z,84.67
